sensor_id;sensor_type;location;lat;lon;timestamp;pressure;altitude;pressure_sealevel;temperature;humidity
15007;BME280;7599;50.748;13.142;2023-07-08T00:00:20;96109.63;;;23.03;45.91
15007;BME280;7599;50.748;13.142;2023-07-08T00:03:23;96122.13;;;23.12;46.22
15007;BME280;7599;50.748;13.142;2023-07-08T00:06:27;96101.75;;;22.98;45.92
15007;BME280;7599;50.748;13.142;2023-07-08T00:09:30;96114.72;;;23.08;46.18
15007;BME280;7599;50.748;13.142;2023-07-08T00:12:34;96104.50;;;22.98;46.20
15007;BME280;7599;50.748;13.142;2023-07-08T00:15:38;96096.66;;;22.93;46.07
15007;BME280;7599;50.748;13.142;2023-07-08T00:18:41;96120.56;;;23.07;45.85
15007;BME280;7599;50.748;13.142;2023-07-08T00:21:43;96116.28;;;23.06;45.55
15007;BME280;7599;50.748;13.142;2023-07-08T00:24:46;96122.94;;;23.05;45.53
15007;BME280;7599;50.748;13.142;2023-07-08T00:27:50;96114.72;;;23.05;45.98
15007;BME280;7599;50.748;13.142;2023-07-08T00:30:52;96113.16;;;23.04;45.56
15007;BME280;7599;50.748;13.142;2023-07-08T00:33:56;96117.84;;;23.03;45.72
15007;BME280;7599;50.748;13.142;2023-07-08T00:36:59;96111.97;;;23.05;45.49
15007;BME280;7599;50.748;13.142;2023-07-08T00:40:01;96116.25;;;23.02;45.48
15007;BME280;7599;50.748;13.142;2023-07-08T00:43:13;96117.44;;;23.01;45.64
15007;BME280;7599;50.748;13.142;2023-07-08T00:46:29;96119.03;;;22.99;45.40
15007;BME280;7599;50.748;13.142;2023-07-08T00:49:37;96102.50;;;22.88;45.40
15007;BME280;7599;50.748;13.142;2023-07-08T00:52:42;96123.72;;;23.02;45.56
15007;BME280;7599;50.748;13.142;2023-07-08T00:55:46;96125.69;;;23.05;45.20
15007;BME280;7599;50.748;13.142;2023-07-08T00:58:55;96125.25;;;23.03;44.94
15007;BME280;7599;50.748;13.142;2023-07-08T01:02:01;96122.53;;;22.99;45.48
15007;BME280;7599;50.748;13.142;2023-07-08T01:05:09;96126.84;;;23.00;45.35
15007;BME280;7599;50.748;13.142;2023-07-08T01:08:12;96113.53;;;22.95;45.19
15007;BME280;7599;50.748;13.142;2023-07-08T01:11:15;96113.13;;;22.97;44.88
15007;BME280;7599;50.748;13.142;2023-07-08T01:14:20;96113.91;;;23.01;44.94
15007;BME280;7599;50.748;13.142;2023-07-08T01:17:24;96117.06;;;22.99;44.78
15007;BME280;7599;50.748;13.142;2023-07-08T01:20:26;96117.44;;;22.98;44.95
15007;BME280;7599;50.748;13.142;2023-07-08T01:23:30;96107.63;;;22.93;44.80
15007;BME280;7599;50.748;13.142;2023-07-08T01:26:42;96110.00;;;22.98;44.77
15007;BME280;7599;50.748;13.142;2023-07-08T01:29:46;96102.16;;;22.97;44.83
15007;BME280;7599;50.748;13.142;2023-07-08T01:32:50;96097.47;;;22.97;44.53
15007;BME280;7599;50.748;13.142;2023-07-08T01:35:54;96100.97;;;22.98;44.37
15007;BME280;7599;50.748;13.142;2023-07-08T01:38:58;96084.09;;;22.89;44.56
15007;BME280;7599;50.748;13.142;2023-07-08T01:42:01;96096.66;;;22.90;44.50
15007;BME280;7599;50.748;13.142;2023-07-08T01:45:10;96074.38;;;22.91;44.62
15007;BME280;7599;50.748;13.142;2023-07-08T01:48:15;96088.06;;;22.95;44.78
15007;BME280;7599;50.748;13.142;2023-07-08T01:51:19;96073.53;;;22.87;44.69
15007;BME280;7599;50.748;13.142;2023-07-08T01:54:23;96089.63;;;22.92;44.18
15007;BME280;7599;50.748;13.142;2023-07-08T01:57:26;96081.38;;;22.89;44.24
15007;BME280;7599;50.748;13.142;2023-07-08T02:00:28;96068.03;;;22.80;44.32
15007;BME280;7599;50.748;13.142;2023-07-08T02:03:31;96081.78;;;22.94;43.97
15007;BME280;7599;50.748;13.142;2023-07-08T02:06:34;96072.75;;;22.87;44.16
15007;BME280;7599;50.748;13.142;2023-07-08T02:09:38;96069.25;;;22.93;44.08
15007;BME280;7599;50.748;13.142;2023-07-08T02:12:41;96069.66;;;22.92;43.91
15007;BME280;7599;50.748;13.142;2023-07-08T02:15:43;96067.66;;;22.89;44.07
15007;BME280;7599;50.748;13.142;2023-07-08T02:18:46;96071.63;;;22.91;43.75
15007;BME280;7599;50.748;13.142;2023-07-08T02:21:48;96061.78;;;22.83;44.03
15007;BME280;7599;50.748;13.142;2023-07-08T02:24:54;96075.53;;;22.90;43.71
15007;BME280;7599;50.748;13.142;2023-07-08T02:27:57;96059.44;;;22.78;44.00
15007;BME280;7599;50.748;13.142;2023-07-08T02:31:02;96057.09;;;22.83;43.65
15007;BME280;7599;50.748;13.142;2023-07-08T02:34:04;96068.09;;;22.91;43.96
15007;BME280;7599;50.748;13.142;2023-07-08T02:37:07;96077.47;;;22.90;43.80
15007;BME280;7599;50.748;13.142;2023-07-08T02:40:12;96069.25;;;22.86;43.82
15007;BME280;7599;50.748;13.142;2023-07-08T02:43:15;96064.13;;;22.81;43.97
15007;BME280;7599;50.748;13.142;2023-07-08T02:46:18;96061.00;;;22.82;44.12
15007;BME280;7599;50.748;13.142;2023-07-08T02:49:20;96061.78;;;22.83;44.16
15007;BME280;7599;50.748;13.142;2023-07-08T02:52:23;96075.09;;;22.81;43.77
15007;BME280;7599;50.748;13.142;2023-07-08T02:55:27;96084.50;;;22.87;44.08
15007;BME280;7599;50.748;13.142;2023-07-08T02:58:29;96073.16;;;22.81;44.05
15007;BME280;7599;50.748;13.142;2023-07-08T03:01:32;96071.19;;;22.82;43.74
15007;BME280;7599;50.748;13.142;2023-07-08T03:04:43;96064.53;;;22.79;43.91
15007;BME280;7599;50.748;13.142;2023-07-08T03:07:46;96075.88;;;22.78;44.02
15007;BME280;7599;50.748;13.142;2023-07-08T03:10:55;96069.63;;;22.77;43.94
15007;BME280;7599;50.748;13.142;2023-07-08T03:13:58;96073.16;;;22.78;44.24
15007;BME280;7599;50.748;13.142;2023-07-08T03:17:01;96075.50;;;22.83;43.72
15007;BME280;7599;50.748;13.142;2023-07-08T03:20:05;96076.69;;;22.82;44.03
15007;BME280;7599;50.748;13.142;2023-07-08T03:23:08;96066.88;;;22.81;44.08
15007;BME280;7599;50.748;13.142;2023-07-08T03:26:13;96046.09;;;22.66;44.06
15007;BME280;7599;50.748;13.142;2023-07-08T03:29:18;96070.78;;;22.83;44.20
15007;BME280;7599;50.748;13.142;2023-07-08T03:32:20;96071.56;;;22.80;44.01
15007;BME280;7599;50.748;13.142;2023-07-08T03:35:23;96082.16;;;22.82;44.30
15007;BME280;7599;50.748;13.142;2023-07-08T03:38:26;96076.28;;;22.83;44.03
15007;BME280;7599;50.748;13.142;2023-07-08T03:41:30;96072.72;;;22.76;44.29
15007;BME280;7599;50.748;13.142;2023-07-08T03:44:33;96082.53;;;22.80;44.28
15007;BME280;7599;50.748;13.142;2023-07-08T03:47:36;96090.75;;;22.80;44.01
15007;BME280;7599;50.748;13.142;2023-07-08T03:50:38;96081.34;;;22.74;44.34
15007;BME280;7599;50.748;13.142;2023-07-08T03:53:41;96094.25;;;22.81;44.63
15007;BME280;7599;50.748;13.142;2023-07-08T03:56:45;96086.84;;;22.74;44.11
15007;BME280;7599;50.748;13.142;2023-07-08T03:59:48;96071.56;;;22.70;44.45
15007;BME280;7599;50.748;13.142;2023-07-08T04:02:50;96087.22;;;22.80;44.63
15007;BME280;7599;50.748;13.142;2023-07-08T04:05:53;96081.75;;;22.80;44.25
15007;BME280;7599;50.748;13.142;2023-07-08T04:08:55;96082.94;;;22.82;44.38
15007;BME280;7599;50.748;13.142;2023-07-08T04:11:59;96062.16;;;22.71;44.33
15007;BME280;7599;50.748;13.142;2023-07-08T04:15:02;96070.00;;;22.76;44.68
15007;BME280;7599;50.748;13.142;2023-07-08T04:18:04;96057.84;;;22.63;44.28
15007;BME280;7599;50.748;13.142;2023-07-08T04:21:08;96077.47;;;22.82;44.51
15007;BME280;7599;50.748;13.142;2023-07-08T04:24:15;96084.13;;;22.81;44.69
15007;BME280;7599;50.748;13.142;2023-07-08T04:27:19;96079.00;;;22.83;44.08
15007;BME280;7599;50.748;13.142;2023-07-08T04:30:24;96080.56;;;22.81;44.38
15007;BME280;7599;50.748;13.142;2023-07-08T04:33:27;96074.31;;;22.73;44.33
15007;BME280;7599;50.748;13.142;2023-07-08T04:36:30;96090.75;;;22.84;44.61
15007;BME280;7599;50.748;13.142;2023-07-08T04:39:32;96100.16;;;22.83;44.03
15007;BME280;7599;50.748;13.142;2023-07-08T04:42:36;96092.72;;;22.83;44.49
15007;BME280;7599;50.748;13.142;2023-07-08T04:45:40;96073.13;;;22.71;44.70
15007;BME280;7599;50.748;13.142;2023-07-08T04:48:43;96092.72;;;22.83;44.53
15007;BME280;7599;50.748;13.142;2023-07-08T04:51:47;96086.47;;;22.83;44.01
15007;BME280;7599;50.748;13.142;2023-07-08T04:54:49;96088.78;;;22.81;44.49
15007;BME280;7599;50.748;13.142;2023-07-08T04:57:53;96086.03;;;22.81;44.32
15007;BME280;7599;50.748;13.142;2023-07-08T05:00:56;96088.41;;;22.75;44.38
15007;BME280;7599;50.748;13.142;2023-07-08T05:03:59;96077.03;;;22.66;44.44
15007;BME280;7599;50.748;13.142;2023-07-08T05:07:02;96102.13;;;22.82;44.79
15007;BME280;7599;50.748;13.142;2023-07-08T05:10:05;96101.34;;;22.82;44.87
15007;BME280;7599;50.748;13.142;2023-07-08T05:13:09;96097.00;;;22.74;45.07
15007;BME280;7599;50.748;13.142;2023-07-08T05:16:12;96095.81;;;22.71;44.71
15007;BME280;7599;50.748;13.142;2023-07-08T05:19:14;96088.41;;;22.68;44.97
15007;BME280;7599;50.748;13.142;2023-07-08T05:22:17;96113.06;;;22.79;44.92
15007;BME280;7599;50.748;13.142;2023-07-08T05:25:26;96100.53;;;22.74;45.04
15007;BME280;7599;50.748;13.142;2023-07-08T05:28:30;96108.38;;;22.83;44.92
15007;BME280;7599;50.748;13.142;2023-07-08T05:31:33;96111.50;;;22.85;44.95
15007;BME280;7599;50.748;13.142;2023-07-08T05:34:39;96101.31;;;22.78;45.03
15007;BME280;7599;50.748;13.142;2023-07-08T05:37:42;96113.09;;;22.86;45.01
15007;BME280;7599;50.748;13.142;2023-07-08T05:40:48;96095.44;;;22.73;45.18
15007;BME280;7599;50.748;13.142;2023-07-08T05:43:53;96099.00;;;22.77;45.15
15007;BME280;7599;50.748;13.142;2023-07-08T05:46:55;96109.56;;;22.86;44.94
15007;BME280;7599;50.748;13.142;2023-07-08T05:49:58;96113.88;;;22.87;44.88
15007;BME280;7599;50.748;13.142;2023-07-08T05:53:00;96104.44;;;22.80;44.83
15007;BME280;7599;50.748;13.142;2023-07-08T05:56:03;96109.56;;;22.89;45.33
15007;BME280;7599;50.748;13.142;2023-07-08T05:59:08;96107.19;;;22.80;45.38
15007;BME280;7599;50.748;13.142;2023-07-08T06:02:11;96124.06;;;22.90;45.34
15007;BME280;7599;50.748;13.142;2023-07-08T06:05:15;96112.28;;;22.89;45.48
15007;BME280;7599;50.748;13.142;2023-07-08T06:08:18;96108.78;;;22.81;44.97
15007;BME280;7599;50.748;13.142;2023-07-08T06:11:21;96115.47;;;22.91;45.21
15007;BME280;7599;50.748;13.142;2023-07-08T06:14:26;96115.84;;;22.90;45.47
15007;BME280;7599;50.748;13.142;2023-07-08T06:17:28;96104.09;;;22.86;45.00
15007;BME280;7599;50.748;13.142;2023-07-08T06:20:31;96098.59;;;22.82;45.50
15007;BME280;7599;50.748;13.142;2023-07-08T06:23:33;96111.13;;;22.83;45.68
15007;BME280;7599;50.748;13.142;2023-07-08T06:26:36;96123.69;;;22.91;45.07
15007;BME280;7599;50.748;13.142;2023-07-08T06:29:40;96119.75;;;22.89;45.07
15007;BME280;7599;50.748;13.142;2023-07-08T06:32:42;96108.75;;;22.85;45.45
15007;BME280;7599;50.748;13.142;2023-07-08T06:35:46;96119.41;;;22.90;45.08
15007;BME280;7599;50.748;13.142;2023-07-08T06:38:49;96118.59;;;22.90;45.25
15007;BME280;7599;50.748;13.142;2023-07-08T06:41:51;96114.66;;;22.83;45.22
15007;BME280;7599;50.748;13.142;2023-07-08T06:44:55;96118.97;;;22.88;45.17
15007;BME280;7599;50.748;13.142;2023-07-08T06:47:58;96117.78;;;22.86;45.08
15007;BME280;7599;50.748;13.142;2023-07-08T06:51:01;96113.91;;;22.90;45.19
15007;BME280;7599;50.748;13.142;2023-07-08T06:54:03;96115.44;;;22.88;45.46
15007;BME280;7599;50.748;13.142;2023-07-08T06:57:12;96108.78;;;22.81;45.54
15007;BME280;7599;50.748;13.142;2023-07-08T07:00:16;96119.00;;;22.92;45.30
15007;BME280;7599;50.748;13.142;2023-07-08T07:03:19;96119.00;;;22.92;45.34
15007;BME280;7599;50.748;13.142;2023-07-08T07:06:22;96123.31;;;22.93;45.19
15007;BME280;7599;50.748;13.142;2023-07-08T07:09:24;96120.56;;;22.93;45.19
15007;BME280;7599;50.748;13.142;2023-07-08T07:12:27;96123.31;;;22.93;45.34
15007;BME280;7599;50.748;13.142;2023-07-08T07:15:31;96112.31;;;22.86;44.85
15007;BME280;7599;50.748;13.142;2023-07-08T07:18:34;96110.38;;;22.93;44.94
15007;BME280;7599;50.748;13.142;2023-07-08T07:21:36;96112.75;;;22.91;44.92
15007;BME280;7599;50.748;13.142;2023-07-08T07:24:39;96117.41;;;22.87;45.08
15007;BME280;7599;50.748;13.142;2023-07-08T07:27:41;96115.47;;;22.91;44.57
15007;BME280;7599;50.748;13.142;2023-07-08T07:30:46;96113.88;;;22.87;45.09
15007;BME280;7599;50.748;13.142;2023-07-08T07:33:49;96114.31;;;22.92;45.19
15007;BME280;7599;50.748;13.142;2023-07-08T07:36:52;96128.00;;;22.92;45.14
15007;BME280;7599;50.748;13.142;2023-07-08T07:39:58;96122.91;;;22.94;45.01
15007;BME280;7599;50.748;13.142;2023-07-08T07:43:00;96119.00;;;22.95;45.07
15007;BME280;7599;50.748;13.142;2023-07-08T07:46:05;96118.59;;;22.93;44.61
15007;BME280;7599;50.748;13.142;2023-07-08T07:49:10;96110.38;;;22.93;45.11
15007;BME280;7599;50.748;13.142;2023-07-08T07:52:12;96098.22;;;22.87;45.38
15007;BME280;7599;50.748;13.142;2023-07-08T07:55:16;96108.03;;;22.95;45.31
15007;BME280;7599;50.748;13.142;2023-07-08T07:58:18;96115.50;;;22.95;44.84
15007;BME280;7599;50.748;13.142;2023-07-08T08:01:22;96114.69;;;22.94;44.83
15007;BME280;7599;50.748;13.142;2023-07-08T08:04:25;96108.41;;;22.94;44.83
15007;BME280;7599;50.748;13.142;2023-07-08T08:07:28;96112.34;;;22.96;45.05
15007;BME280;7599;50.748;13.142;2023-07-08T08:10:30;96113.91;;;22.97;44.73
15007;BME280;7599;50.748;13.142;2023-07-08T08:13:33;96115.09;;;22.96;44.73
15007;BME280;7599;50.748;13.142;2023-07-08T08:16:37;96106.84;;;22.93;44.63
15007;BME280;7599;50.748;13.142;2023-07-08T08:19:40;96105.31;;;22.95;44.60
15007;BME280;7599;50.748;13.142;2023-07-08T08:22:43;96115.47;;;23.02;44.71
15007;BME280;7599;50.748;13.142;2023-07-08T08:25:46;96116.25;;;23.02;44.60
15007;BME280;7599;50.748;13.142;2023-07-08T08:28:48;96106.88;;;23.03;44.49
15007;BME280;7599;50.748;13.142;2023-07-08T08:31:52;96116.25;;;23.02;44.58
15007;BME280;7599;50.748;13.142;2023-07-08T08:34:55;96117.03;;;23.03;44.24
15007;BME280;7599;50.748;13.142;2023-07-08T08:37:59;96115.47;;;23.02;44.43
15007;BME280;7599;50.748;13.142;2023-07-08T08:41:04;96114.72;;;23.05;44.09
15007;BME280;7599;50.748;13.142;2023-07-08T08:44:16;96116.69;;;23.08;44.29
15007;BME280;7599;50.748;13.142;2023-07-08T08:47:31;96130.78;;;23.10;44.26
15007;BME280;7599;50.748;13.142;2023-07-08T08:50:39;96119.03;;;23.13;44.17
15007;BME280;7599;50.748;13.142;2023-07-08T08:53:45;96110.81;;;23.13;44.08
15007;BME280;7599;50.748;13.142;2023-07-08T08:56:56;96107.66;;;23.04;44.01
15007;BME280;7599;50.748;13.142;2023-07-08T09:00:03;96116.66;;;23.12;43.96
15007;BME280;7599;50.748;13.142;2023-07-08T09:03:12;96117.06;;;23.14;44.34
15007;BME280;7599;50.748;13.142;2023-07-08T09:06:19;96120.22;;;23.12;43.88
15007;BME280;7599;50.748;13.142;2023-07-08T09:09:38;96112.75;;;23.09;43.79
15007;BME280;7599;50.748;13.142;2023-07-08T09:12:43;96120.19;;;23.16;44.34
15007;BME280;7599;50.748;13.142;2023-07-08T09:15:48;96111.19;;;23.08;44.19
15007;BME280;7599;50.748;13.142;2023-07-08T09:19:00;96108.06;;;23.10;44.39
15007;BME280;7599;50.748;13.142;2023-07-08T09:22:11;96126.09;;;23.18;44.06
15007;BME280;7599;50.748;13.142;2023-07-08T09:25:24;96120.19;;;23.19;44.22
15007;BME280;7599;50.748;13.142;2023-07-08T09:28:37;96122.16;;;23.19;44.27
15007;BME280;7599;50.748;13.142;2023-07-08T09:31:40;96119.81;;;23.17;43.98
15007;BME280;7599;50.748;13.142;2023-07-08T09:34:50;96117.06;;;23.17;44.38
15007;BME280;7599;50.748;13.142;2023-07-08T09:37:54;96124.53;;;23.17;44.41
15007;BME280;7599;50.748;13.142;2023-07-08T09:40:57;96127.25;;;23.17;44.49
15007;BME280;7599;50.748;13.142;2023-07-08T09:44:16;96130.78;;;23.21;44.38
15007;BME280;7599;50.748;13.142;2023-07-08T09:47:22;96115.91;;;23.18;44.22
15007;BME280;7599;50.748;13.142;2023-07-08T09:50:29;96125.28;;;23.24;44.20
15007;BME280;7599;50.748;13.142;2023-07-08T09:53:33;96115.50;;;23.16;44.47
15007;BME280;7599;50.748;13.142;2023-07-08T09:56:40;96116.66;;;23.15;44.16
15007;BME280;7599;50.748;13.142;2023-07-08T09:59:47;96132.34;;;23.22;44.08
15007;BME280;7599;50.748;13.142;2023-07-08T10:02:52;96133.50;;;23.24;44.44
15007;BME280;7599;50.748;13.142;2023-07-08T10:06:03;96123.72;;;23.20;44.57
15007;BME280;7599;50.748;13.142;2023-07-08T10:09:08;96128.06;;;23.21;44.86
15007;BME280;7599;50.748;13.142;2023-07-08T10:12:15;96117.44;;;23.16;44.49
15007;BME280;7599;50.748;13.142;2023-07-08T10:15:22;96135.09;;;23.25;44.81
15007;BME280;7599;50.748;13.142;2023-07-08T10:18:28;96131.97;;;23.30;44.57
15007;BME280;7599;50.748;13.142;2023-07-08T10:21:36;96134.69;;;23.27;44.78
15007;BME280;7599;50.748;13.142;2023-07-08T10:24:55;96136.28;;;23.35;44.77
15007;BME280;7599;50.748;13.142;2023-07-08T10:28:13;96121.75;;;23.24;44.39
15007;BME280;7599;50.748;13.142;2023-07-08T10:31:25;96130.00;;;23.27;44.71
15007;BME280;7599;50.748;13.142;2023-07-08T10:34:39;96138.63;;;23.29;44.86
15007;BME280;7599;50.748;13.142;2023-07-08T10:38:00;96129.59;;;23.29;44.40
15007;BME280;7599;50.748;13.142;2023-07-08T10:41:13;96108.84;;;23.17;44.44
15007;BME280;7599;50.748;13.142;2023-07-08T10:44:23;96117.06;;;23.28;44.84
15007;BME280;7599;50.748;13.142;2023-07-08T10:47:36;96117.84;;;23.32;44.66
15007;BME280;7599;50.748;13.142;2023-07-08T10:50:51;96120.97;;;23.38;44.25
15007;BME280;7599;50.748;13.142;2023-07-08T10:54:29;96125.69;;;23.41;44.36
15007;BME280;7599;50.748;13.142;2023-07-08T10:57:51;96126.88;;;23.43;44.48
15007;BME280;7599;50.748;13.142;2023-07-08T11:01:12;96125.69;;;23.44;44.80
15007;BME280;7599;50.748;13.142;2023-07-08T11:04:35;96116.69;;;23.44;44.77
15007;BME280;7599;50.748;13.142;2023-07-08T11:07:45;96107.25;;;23.38;44.74
15007;BME280;7599;50.748;13.142;2023-07-08T11:10:54;96099.84;;;23.31;44.81
15007;BME280;7599;50.748;13.142;2023-07-08T11:14:18;96103.75;;;23.41;44.64
15007;BME280;7599;50.748;13.142;2023-07-08T11:17:27;96114.72;;;23.44;44.94
15007;BME280;7599;50.748;13.142;2023-07-08T11:20:41;96116.69;;;23.44;44.44
15007;BME280;7599;50.748;13.142;2023-07-08T11:23:50;96109.63;;;23.46;44.57
15007;BME280;7599;50.748;13.142;2023-07-08T11:27:04;96112.75;;;23.45;44.81
15007;BME280;7599;50.748;13.142;2023-07-08T11:30:13;96102.19;;;23.47;44.73
15007;BME280;7599;50.748;13.142;2023-07-08T11:33:19;96092.41;;;23.42;44.70
15007;BME280;7599;50.748;13.142;2023-07-08T11:36:24;96086.13;;;23.38;44.54
15007;BME280;7599;50.748;13.142;2023-07-08T11:39:32;96097.47;;;23.44;44.64
15007;BME280;7599;50.748;13.142;2023-07-08T11:42:39;96091.22;;;23.47;44.66
15007;BME280;7599;50.748;13.142;2023-07-08T11:45:43;96100.59;;;23.49;44.69
15007;BME280;7599;50.748;13.142;2023-07-08T11:48:48;96094.75;;;23.51;44.87
15007;BME280;7599;50.748;13.142;2023-07-08T11:51:53;96093.56;;;23.52;44.86
15007;BME280;7599;50.748;13.142;2023-07-08T11:55:03;96062.19;;;23.53;44.58
15007;BME280;7599;50.748;13.142;2023-07-08T11:58:19;96099.41;;;23.54;44.90
15007;BME280;7599;50.748;13.142;2023-07-08T12:01:23;96097.09;;;23.56;44.67
15007;BME280;7599;50.748;13.142;2023-07-08T12:04:31;96093.56;;;23.55;44.95
15007;BME280;7599;50.748;13.142;2023-07-08T12:07:38;96083.75;;;23.51;44.64
15007;BME280;7599;50.748;13.142;2023-07-08T12:10:47;96081.00;;;23.58;44.58
15007;BME280;7599;50.748;13.142;2023-07-08T12:13:51;96076.69;;;23.53;45.34
15007;BME280;7599;50.748;13.142;2023-07-08T12:16:55;96087.28;;;23.51;45.31
15007;BME280;7599;50.748;13.142;2023-07-08T12:20:01;96081.41;;;23.49;45.39
15007;BME280;7599;50.748;13.142;2023-07-08T12:23:09;96078.66;;;23.49;45.06
15007;BME280;7599;50.748;13.142;2023-07-08T12:26:14;96080.22;;;23.57;45.36
15007;BME280;7599;50.748;13.142;2023-07-08T12:29:18;96077.84;;;23.59;44.92
15007;BME280;7599;50.748;13.142;2023-07-08T12:32:20;96068.47;;;23.53;44.71
15007;BME280;7599;50.748;13.142;2023-07-08T12:35:29;96073.94;;;23.53;45.08
15007;BME280;7599;50.748;13.142;2023-07-08T12:38:35;96068.06;;;23.58;44.40
15007;BME280;7599;50.748;13.142;2023-07-08T12:41:39;96073.53;;;23.62;44.50
15007;BME280;7599;50.748;13.142;2023-07-08T12:44:43;96065.72;;;23.50;43.52
15007;BME280;7599;50.748;13.142;2023-07-08T12:47:46;96069.25;;;23.57;43.49
15007;BME280;7599;50.748;13.142;2023-07-08T12:50:49;96075.13;;;23.52;44.26
15007;BME280;7599;50.748;13.142;2023-07-08T12:53:53;96073.53;;;23.58;44.12
15007;BME280;7599;50.748;13.142;2023-07-08T12:56:56;96069.63;;;23.59;43.87
15007;BME280;7599;50.748;13.142;2023-07-08T13:00:00;96073.94;;;23.61;44.09
15007;BME280;7599;50.748;13.142;2023-07-08T13:03:05;96071.19;;;23.64;43.63
15007;BME280;7599;50.748;13.142;2023-07-08T13:06:11;96064.94;;;23.67;43.63
15007;BME280;7599;50.748;13.142;2023-07-08T13:09:26;96064.56;;;23.69;43.89
15007;BME280;7599;50.748;13.142;2023-07-08T13:12:32;96061.41;;;23.70;43.40
15007;BME280;7599;50.748;13.142;2023-07-08T13:15:40;96074.72;;;23.72;43.34
15007;BME280;7599;50.748;13.142;2023-07-08T13:18:44;96068.06;;;23.62;42.33
15007;BME280;7599;50.748;13.142;2023-07-08T13:21:47;96059.84;;;23.66;41.87
15007;BME280;7599;50.748;13.142;2023-07-08T13:24:59;96053.16;;;23.70;41.57
15007;BME280;7599;50.748;13.142;2023-07-08T13:28:15;96052.00;;;23.71;42.70
15007;BME280;7599;50.748;13.142;2023-07-08T13:31:21;96050.41;;;23.74;42.38
15007;BME280;7599;50.748;13.142;2023-07-08T13:34:27;96045.31;;;23.79;42.96
15007;BME280;7599;50.748;13.142;2023-07-08T13:37:31;96038.66;;;23.73;43.61
15007;BME280;7599;50.748;13.142;2023-07-08T13:40:58;96040.63;;;23.73;43.36
15007;BME280;7599;50.748;13.142;2023-07-08T13:44:05;96045.31;;;23.72;43.10
15007;BME280;7599;50.748;13.142;2023-07-08T13:47:20;96044.16;;;23.73;43.44
15007;BME280;7599;50.748;13.142;2023-07-08T13:50:31;96021.81;;;23.64;43.38
15007;BME280;7599;50.748;13.142;2023-07-08T13:53:45;96044.16;;;23.70;43.27
15007;BME280;7599;50.748;13.142;2023-07-08T13:56:49;96037.06;;;23.72;43.73
15007;BME280;7599;50.748;13.142;2023-07-08T13:59:53;96035.94;;;23.70;43.70
15007;BME280;7599;50.748;13.142;2023-07-08T14:03:17;96024.94;;;23.63;43.47
15007;BME280;7599;50.748;13.142;2023-07-08T14:06:37;96041.41;;;23.70;43.19
15007;BME280;7599;50.748;13.142;2023-07-08T14:09:40;96033.56;;;23.68;43.57
15007;BME280;7599;50.748;13.142;2023-07-08T14:12:47;96041.78;;;23.72;43.69
15007;BME280;7599;50.748;13.142;2023-07-08T14:15:52;96033.19;;;23.66;44.02
15007;BME280;7599;50.748;13.142;2023-07-08T14:18:58;96027.28;;;23.68;43.68
15007;BME280;7599;50.748;13.142;2023-07-08T14:22:19;96019.44;;;23.73;43.69
15007;BME280;7599;50.748;13.142;2023-07-08T14:25:23;96025.31;;;23.72;43.66
15007;BME280;7599;50.748;13.142;2023-07-08T14:28:26;96017.88;;;23.62;44.13
15007;BME280;7599;50.748;13.142;2023-07-08T14:31:30;96024.91;;;23.77;44.08
15007;BME280;7599;50.748;13.142;2023-07-08T14:34:41;96031.22;;;23.74;43.97
15007;BME280;7599;50.748;13.142;2023-07-08T14:37:51;96033.91;;;23.81;43.90
15007;BME280;7599;50.748;13.142;2023-07-08T14:40:54;96030.78;;;23.79;43.89
15007;BME280;7599;50.748;13.142;2023-07-08T14:43:59;96031.59;;;23.76;44.13
15007;BME280;7599;50.748;13.142;2023-07-08T14:47:04;96019.75;;;23.97;44.48
15007;BME280;7599;50.748;13.142;2023-07-08T14:50:14;96031.13;;;23.95;44.57
15007;BME280;7599;50.748;13.142;2023-07-08T14:53:17;96020.19;;;23.85;44.61
15007;BME280;7599;50.748;13.142;2023-07-08T14:56:20;96022.50;;;23.90;44.64
15007;BME280;7599;50.748;13.142;2023-07-08T14:59:25;96024.88;;;23.88;44.69
15007;BME280;7599;50.748;13.142;2023-07-08T15:02:28;96014.31;;;23.86;44.99
15007;BME280;7599;50.748;13.142;2023-07-08T15:05:32;96004.13;;;23.79;44.78
15007;BME280;7599;50.748;13.142;2023-07-08T15:08:34;96015.47;;;23.89;44.57
15007;BME280;7599;50.748;13.142;2023-07-08T15:11:38;96017.84;;;23.90;44.68
15007;BME280;7599;50.748;13.142;2023-07-08T15:14:41;96022.13;;;23.91;44.76
15007;BME280;7599;50.748;13.142;2023-07-08T15:17:44;96011.56;;;23.82;45.02
15007;BME280;7599;50.748;13.142;2023-07-08T15:20:51;96017.06;;;23.86;44.88
15007;BME280;7599;50.748;13.142;2023-07-08T15:23:53;96019.75;;;23.90;44.96
15007;BME280;7599;50.748;13.142;2023-07-08T15:26:56;96019.38;;;23.91;45.08
15007;BME280;7599;50.748;13.142;2023-07-08T15:29:59;96020.16;;;23.92;45.52
15007;BME280;7599;50.748;13.142;2023-07-08T15:33:02;96014.69;;;23.92;45.08
15007;BME280;7599;50.748;13.142;2023-07-08T15:36:06;96015.47;;;23.92;45.58
15007;BME280;7599;50.748;13.142;2023-07-08T15:39:09;96017.78;;;23.94;45.36
15007;BME280;7599;50.748;13.142;2023-07-08T15:42:12;96013.88;;;23.95;45.40
15007;BME280;7599;50.748;13.142;2023-07-08T15:45:18;96009.56;;;23.94;45.54
15007;BME280;7599;50.748;13.142;2023-07-08T15:48:22;96010.34;;;23.94;45.62
15007;BME280;7599;50.748;13.142;2023-07-08T15:51:26;96002.91;;;23.91;45.69
15007;BME280;7599;50.748;13.142;2023-07-08T15:54:30;96004.09;;;23.90;45.39
15007;BME280;7599;50.748;13.142;2023-07-08T15:57:34;95993.50;;;23.89;45.60
15007;BME280;7599;50.748;13.142;2023-07-08T16:00:40;96005.66;;;23.95;45.51
15007;BME280;7599;50.748;13.142;2023-07-08T16:03:43;96010.72;;;24.00;45.56
15007;BME280;7599;50.748;13.142;2023-07-08T16:06:47;96008.34;;;24.02;46.97
15007;BME280;7599;50.748;13.142;2023-07-08T16:09:50;95994.66;;;23.95;48.44
15007;BME280;7599;50.748;13.142;2023-07-08T16:12:52;96004.84;;;23.94;48.21
15007;BME280;7599;50.748;13.142;2023-07-08T16:15:58;96007.56;;;24.01;47.83
15007;BME280;7599;50.748;13.142;2023-07-08T16:19:00;96009.13;;;24.02;48.36
15007;BME280;7599;50.748;13.142;2023-07-08T16:22:05;96015.81;;;24.01;48.59